27 czerwca 2022

Czas Kod Pogoda Temp. Widoczność Sufit Wiatr METAR/SPECI
5:00 am
V
59 °F 6¼ mi+ - 080° 080° 4 kt METAR EPLB 270300Z 08004KT CAVOK 15/14 Q1020
4:30 am
V
59 °F 6¼ mi+ - 070° 070° 2 kt METAR EPLB 270230Z 07002KT CAVOK 15/14 Q1020
4:00 am
V
59 °F 6¼ mi+ - 060° 060° 2 kt METAR EPLB 270200Z 06002KT CAVOK 15/14 Q1020
3:30 am
V
59 °F 6¼ mi+ - 140° 140° 1 kt METAR EPLB 270130Z 14001KT CAVOK 15/14 Q1020
3:00 am
V
59 °F 6¼ mi+ - 090° 090° 2 kt METAR EPLB 270100Z 09002KT CAVOK 15/14 Q1020
2:30 am
V
59 °F 6¼ mi+ - 110° 110° 1 kt METAR EPLB 270030Z 11001KT CAVOK 15/14 Q1020
2:00 am
V
61 °F 6¼ mi+ - 110° 110° 1 kt METAR EPLB 270000Z 11001KT CAVOK 16/15 Q1020
1:30 am
V
61 °F 6¼ mi+ - 140° 140° 2 kt METAR EPLB 262330Z 14002KT CAVOK 16/15 Q1020
1:00 am
V
63 °F 6¼ mi+ - 140° 140° 1 kt METAR EPLB 262300Z 14001KT CAVOK 17/16 Q1020
12:30 am
V
64 °F 6¼ mi+ - 070° 070° 1 kt METAR EPLB 262230Z 07001KT CAVOK 18/16 Q1020
12:00 am
V
63 °F 6¼ mi+ - 040° 040° 1 kt METAR EPLB 262200Z 04001KT CAVOK 17/15 Q1020

26 czerwca 2022

Czas Kod Pogoda Temp. Widoczność Sufit Wiatr METAR/SPECI
11:30 pm
V
64 °F 6¼ mi+ - Var Var 1 kt METAR EPLB 262130Z VRB01KT CAVOK 18/16 Q1020
11:00 pm
V
66 °F 6¼ mi+ - 100° 100° 1 kt METAR EPLB 262100Z 10001KT CAVOK 19/16 Q1019
10:30 pm
V
66 °F 6¼ mi+ - 090° 090° 1 kt METAR EPLB 262030Z 09001KT CAVOK 19/16 Q1019
10:00 pm
V
70 °F 6¼ mi+ - Var Var 1 kt METAR EPLB 262000Z VRB01KT CAVOK 21/16 Q1019
9:30 pm
V
70 °F 6¼ mi+ - 060° 060° 4 kt METAR EPLB 261930Z 06004KT CAVOK 21/16 Q1019
9:00 pm
V
70 °F 6¼ mi+ - 070° 070° 3 kt METAR EPLB 261900Z 07003KT CAVOK 21/16 Q1019
8:30 pm
V
73 °F 6¼ mi+ - 090° 090° 3 kt METAR EPLB 261830Z 09003KT CAVOK 23/16 Q1018
8:00 pm
V
75 °F 6¼ mi+ - 100° 100° 4 kt METAR EPLB 261800Z 10004KT CAVOK 24/16 Q1018
7:30 pm
V
77 °F 6¼ mi+ - 100° 100° 4 kt METAR EPLB 261730Z 10004KT CAVOK 25/15 Q1018
7:00 pm
V
79 °F 6¼ mi+ - 110° 110° 4 kt METAR EPLB 261700Z 11004KT CAVOK 26/14 Q1018
6:30 pm
V
82 °F 6¼ mi+ - 110° 110° 8 kt METAR EPLB 261630Z 11008KT CAVOK 28/14 Q1018
6:00 pm
V
84 °F 6¼ mi+ - 120° 120° 7 kt METAR EPLB 261600Z 12007KT CAVOK 29/13 Q1018
5:30 pm
V
84 °F 6¼ mi+ - 120° 120° 9 kt METAR EPLB 261530Z 12009KT CAVOK 29/13 Q1018
5:00 pm
V
82 °F 6¼ mi+ - 120° 120° 9 kt METAR EPLB 261500Z 12009KT CAVOK 28/13 Q1018
4:30 pm
V
84 °F 6¼ mi+ - 120° 120° 10 kt METAR EPLB 261430Z 12010KT CAVOK 29/14 Q1018
4:00 pm
V
82 °F 6¼ mi+ - 110° 110° 7 kt METAR EPLB 261400Z 11007KT CAVOK 28/13 Q1018
3:30 pm
V
86 °F 6¼ mi+ - 110° 110° 11 kt METAR EPLB 261330Z 11011KT CAVOK 30/13 Q1018
3:00 pm
V
84 °F 6¼ mi+ - 120° 120° 9 kt METAR EPLB 261300Z 12009KT CAVOK 29/13 Q1018
2:30 pm
V
82 °F 6¼ mi+ - 120° 120° 12 kt METAR EPLB 261230Z 12012KT CAVOK 28/13 Q1018
2:00 pm
V
84 °F 6¼ mi+ - 080° 080° 12 kt METAR EPLB 261200Z 08012KT CAVOK 29/13 Q1018
1:30 pm
V
84 °F 6¼ mi+ - 090° 090° 10 kt METAR EPLB 261130Z 09010KT CAVOK 29/13 Q1018
1:00 pm
V
82 °F 6¼ mi+ - 090° 090° 7 kt METAR EPLB 261100Z 09007KT CAVOK 28/13 Q1018
12:30 pm
V
82 °F 6¼ mi+ - 080° 080° 9 kt METAR EPLB 261030Z 08009KT CAVOK 28/13 Q1019
12:00 pm
V
84 °F 6¼ mi+ - 110° 110° 10 kt METAR EPLB 261000Z 11010KT CAVOK 29/13 Q1019
11:30 am
V
82 °F 6¼ mi+ - 140° 140° 10 kt METAR EPLB 260930Z 14010KT CAVOK 28/13 Q1019
11:00 am
V
82 °F 6¼ mi+ - 120° 120° 9 kt METAR EPLB 260900Z 12009KT CAVOK 28/13 Q1019
10:30 am
V
81 °F 6¼ mi+ - 130° 130° 11 kt METAR EPLB 260830Z 13011KT CAVOK 27/13 Q1019
10:00 am
V
81 °F 6¼ mi+ - 130° 130° 9 kt METAR EPLB 260800Z 13009KT CAVOK 27/14 Q1019
9:30 am
V
79 °F 6¼ mi+ - 110° 110° 7 kt METAR EPLB 260730Z 11007KT CAVOK 26/14 Q1019
9:00 am
V
77 °F 6¼ mi+ - 110° 110° 8 kt METAR EPLB 260700Z 11008KT CAVOK 25/14 Q1019
8:30 am
V
75 °F 6¼ mi+ - 130° 130° 7 kt METAR EPLB 260630Z 13007KT CAVOK 24/14 Q1019
8:00 am
V
72 °F 6¼ mi+ - 100° 100° 5 kt METAR EPLB 260600Z 10005KT CAVOK 22/15 Q1019
7:30 am
V
68 °F 6¼ mi+ - 090° 090° 5 kt METAR EPLB 260530Z 09005KT CAVOK 20/15 Q1018
7:00 am
V
64 °F 6¼ mi+ - 080° 080° 5 kt METAR EPLB 260500Z 08005KT CAVOK 18/15 Q1018
6:30 am
V
63 °F 6¼ mi+ - 060° 060° 3 kt METAR EPLB 260430Z 06003KT CAVOK 17/14 Q1018
6:00 am
V
61 °F 6¼ mi+ - 090° 090° 3 kt METAR EPLB 260400Z 09003KT CAVOK 16/14 Q1018
5:30 am
V
59 °F 6¼ mi+ - 060° 060° 4 kt METAR EPLB 260330Z 06004KT CAVOK 15/13 Q1018
5:00 am
V
57 °F 6¼ mi+ - 070° 070° 2 kt METAR EPLB 260300Z 07002KT CAVOK 14/13 Q1018
4:30 am
V
55 °F 6¼ mi+ - 060° 060° 3 kt METAR EPLB 260230Z 06003KT CAVOK 13/12 Q1017
4:00 am
V
55 °F 6¼ mi+ - 070° 070° 3 kt METAR EPLB 260200Z 07003KT CAVOK 13/12 Q1017
3:30 am
V
57 °F 6¼ mi+ - 070° 070° 3 kt METAR EPLB 260130Z 07003KT CAVOK 14/12 Q1017
3:00 am
V
57 °F 6¼ mi+ - 080° 080° 2 kt METAR EPLB 260100Z 08002KT CAVOK 14/13 Q1017
2:30 am
V
57 °F 6¼ mi+ - 070° 070° 2 kt METAR EPLB 260030Z 07002KT CAVOK 14/13 Q1017
2:00 am
V
57 °F 6¼ mi+ - 060° 060° 2 kt METAR EPLB 260000Z 06002KT CAVOK 14/13 Q1017
1:30 am
V
59 °F 6¼ mi+ - 060° 060° 1 kt METAR EPLB 252330Z 06001KT CAVOK 15/13 Q1016
1:00 am
V
61 °F 6¼ mi+ - 060° 060° 2 kt METAR EPLB 252300Z 06002KT CAVOK 16/13 Q1016
12:30 am
V
61 °F 6¼ mi+ - 080° 080° 2 kt METAR EPLB 252230Z 08002KT CAVOK 16/13 Q1016
12:00 am
V
63 °F 6¼ mi+ - 050° 050° 2 kt METAR EPLB 252200Z 05002KT CAVOK 17/13 Q1016

25 czerwca 2022

Czas Kod Pogoda Temp. Widoczność Sufit Wiatr METAR/SPECI
11:30 pm
V
63 °F 6¼ mi+ - 070° 070° 3 kt METAR EPLB 252130Z 07003KT CAVOK 17/13 Q1016
11:00 pm
V
63 °F 6¼ mi+ - 080° 080° 2 kt METAR EPLB 252100Z 08002KT CAVOK 17/14 Q1016
10:30 pm
V
66 °F 6¼ mi+ - 060° 060° 1 kt METAR EPLB 252030Z 06001KT CAVOK 19/14 Q1016
10:00 pm
V
68 °F 6¼ mi+ - 080° 080° 3 kt METAR EPLB 252000Z 08003KT CAVOK 20/14 Q1016
9:30 pm
V
68 °F 6¼ mi+ - 070° 070° 4 kt METAR EPLB 251930Z 07004KT CAVOK 20/15 Q1015
9:00 pm
V
70 °F 6¼ mi+ - 090° 090° 5 kt METAR EPLB 251900Z 09005KT CAVOK 21/14 Q1015
8:30 pm
V
72 °F 6¼ mi+ - 100° 100° 4 kt METAR EPLB 251830Z 10004KT CAVOK 22/15 Q1015
8:00 pm
V
77 °F 6¼ mi+ - 110° 110° 4 kt METAR EPLB 251800Z 11004KT CAVOK 25/14 Q1015
7:30 pm
V
81 °F 6¼ mi+ - 100° 100° 6 kt METAR EPLB 251730Z 10006KT CAVOK 27/14 Q1014
7:00 pm
V
81 °F 6¼ mi+ - 100° 100° 7 kt METAR EPLB 251700Z 10007KT CAVOK 27/13 Q1014
6:30 pm
V
84 °F 6¼ mi+ - 110° 110° 5 kt METAR EPLB 251630Z 11005KT CAVOK 29/14 Q1014
6:00 pm
V
84 °F 6¼ mi+ - 120° 120° 7 kt METAR EPLB 251600Z 12007KT CAVOK 29/12 Q1014
5:30 pm
V
82 °F 6¼ mi+ - 110° 110° 8 kt METAR EPLB 251530Z 11008KT CAVOK 28/12 Q1014
5:00 pm
V
86 °F 6¼ mi+ - 100° 100° 6 kt METAR EPLB 251500Z 10006KT CAVOK 30/12 Q1014
4:30 pm
V
86 °F 6¼ mi+ - 100° 100° 8 kt METAR EPLB 251430Z 10008KT CAVOK 30/12 Q1014
4:00 pm
V
84 °F 6¼ mi+ - 120° 120° 9 kt METAR EPLB 251400Z 12009KT CAVOK 29/12 Q1014
3:30 pm
V
84 °F 6¼ mi+ - 100° 100° 9 kt METAR EPLB 251330Z 10009KT CAVOK 29/12 Q1015
3:00 pm
V
86 °F 6¼ mi+ - 130° 130° 5 kt METAR EPLB 251300Z 13005KT 090V160 CAVOK 30/12 Q1015
2:30 pm
V
86 °F 6¼ mi+ - 120° 120° 9 kt METAR EPLB 251230Z 12009KT CAVOK 30/11 Q1015
2:00 pm
V
84 °F 6¼ mi+ - 110° 110° 9 kt METAR EPLB 251200Z 11009KT CAVOK 29/11 Q1015
1:30 pm
V
84 °F 6¼ mi+ - 110° 110° 12 kt METAR EPLB 251130Z 11012KT CAVOK 29/10 Q1015
1:00 pm
V
84 °F 6¼ mi+ - 150° 150° 6 kt METAR EPLB 251100Z 15006KT 100V180 CAVOK 29/11 Q1015
12:30 pm
V
82 °F 6¼ mi+ - 140° 140° 10 kt METAR EPLB 251030Z 14010KT CAVOK 28/11 Q1015
12:00 pm
V
82 °F 6¼ mi+ - 130° 130° 6 kt METAR EPLB 251000Z 13006KT CAVOK 28/12 Q1015
11:30 am
V
82 °F 6¼ mi+ - 140° 140° 9 kt METAR EPLB 250930Z 14009KT 080V170 CAVOK 28/12 Q1015
11:00 am
V
81 °F 6¼ mi+ - 130° 130° 8 kt METAR EPLB 250900Z 13008KT CAVOK 27/12 Q1015
10:30 am
V
81 °F 6¼ mi+ - 130° 130° 10 kt METAR EPLB 250830Z 13010KT CAVOK 27/12 Q1015
10:00 am
V
81 °F 6¼ mi+ - 120° 120° 5 kt METAR EPLB 250800Z 12005KT 070V150 CAVOK 27/14 Q1015
9:30 am
V
79 °F 6¼ mi+ - 120° 120° 7 kt METAR EPLB 250730Z 12007KT CAVOK 26/13 Q1016
9:00 am
V
77 °F 6¼ mi+ - 080° 080° 6 kt METAR EPLB 250700Z 08006KT CAVOK 25/14 Q1016
8:30 am
V
75 °F 6¼ mi+ - 100° 100° 5 kt METAR EPLB 250630Z 10005KT 050V130 CAVOK 24/14 Q1016
8:00 am
V
72 °F 6¼ mi+ - 080° 080° 3 kt METAR EPLB 250600Z 08003KT 040V120 CAVOK 22/15 Q1015
7:30 am
V
68 °F 6¼ mi+ - Var Var 2 kt METAR EPLB 250530Z VRB02KT CAVOK 20/14 Q1016
7:00 am
V
64 °F 6¼ mi+ - 090° 090° 3 kt METAR EPLB 250500Z 09003KT CAVOK 18/13 Q1015
6:30 am
V
61 °F 6¼ mi+ - Var Var 2 kt METAR EPLB 250430Z VRB02KT CAVOK 16/13 Q1015
6:00 am
V
59 °F 6¼ mi+ - 080° 080° 2 kt METAR EPLB 250400Z 08002KT CAVOK 15/13 Q1015
5:30 am
V
55 °F 6¼ mi+ - 090° 090° 4 kt METAR EPLB 250330Z 09004KT CAVOK 13/12 Q1015
5:00 am
V
54 °F 6¼ mi+ - 060° 060° 2 kt METAR EPLB 250300Z 06002KT CAVOK 12/11 Q1015
4:30 am
V
54 °F 6¼ mi+ - 080° 080° 3 kt METAR EPLB 250230Z 08003KT CAVOK 12/11 Q1015
4:00 am
V
54 °F 6¼ mi+ - 070° 070° 3 kt METAR EPLB 250200Z 07003KT CAVOK 12/11 Q1015
3:30 am
V
55 °F 6¼ mi+ - 110° 110° 2 kt METAR EPLB 250130Z 11002KT CAVOK 13/11 Q1015
3:00 am
V
55 °F 6¼ mi+ - 020° 020° 2 kt METAR EPLB 250100Z 02002KT CAVOK 13/12 Q1015
2:30 am
V
55 °F 6¼ mi+ - 070° 070° 1 kt METAR EPLB 250030Z 07001KT CAVOK 13/12 Q1015
2:00 am
V
55 °F 6¼ mi+ - 120° 120° 2 kt METAR EPLB 250000Z 12002KT CAVOK 13/12 Q1015
1:30 am
V
55 °F 6¼ mi+ - 070° 070° 2 kt METAR EPLB 242330Z 07002KT CAVOK 13/12 Q1015
1:00 am
V
57 °F 6¼ mi+ - 060° 060° 2 kt METAR EPLB 242300Z 06002KT CAVOK 14/12 Q1015
12:30 am
V
61 °F 6¼ mi+ - Var Var 1 kt METAR EPLB 242230Z VRB01KT CAVOK 16/13 Q1015
12:00 am
V
59 °F 6¼ mi+ - 060° 060° 3 kt METAR EPLB 242200Z 06003KT CAVOK 15/12 Q1015

24 czerwca 2022

Czas Kod Pogoda Temp. Widoczność Sufit Wiatr METAR/SPECI
11:30 pm
V
61 °F 6¼ mi+ - Var 000° 0 kt METAR EPLB 242130Z 00000KT CAVOK 16/13 Q1015
11:00 pm
V
59 °F 6¼ mi+ - 070° 070° 2 kt METAR EPLB 242100Z 07002KT CAVOK 15/13 Q1015
10:30 pm
V
63 °F 6¼ mi+ - Var Var 1 kt METAR EPLB 242030Z VRB01KT CAVOK 17/13 Q1015
10:00 pm
V
64 °F 6¼ mi+ - 050° 050° 2 kt METAR EPLB 242000Z 05002KT CAVOK 18/13 Q1015
9:30 pm
V
66 °F 6¼ mi+ - Var Var 2 kt METAR EPLB 241930Z VRB02KT CAVOK 19/13 Q1014
Starsze dane

Pobierz naszą aplikację

Łatwy dostęp do całej pogody lotniczej na telefonie komórkowym i tablecie.
Z wieloma funkcjami niedostępnymi na stronie internetowej, takimi jak wsparcie offline i osobista lista lotnisk.

My i osoby trzecie śledzimy twoje zachowanie w internecie na naszej stronie za pomocą plików cookie. Jeśli kontynuujesz, zakładamy, że zgadzasz się z naszą polityką plików cookie. Dowiedz się więcej